createdAt,value
2022-12-06T00:01:28.958Z,271.52
2022-12-06T00:06:34.864Z,345.48
2022-12-06T00:11:39.565Z,199.05
2022-12-06T00:16:43.017Z,255.27
2022-12-06T00:21:47.384Z,196.40
2022-12-06T00:26:53.071Z,339.67
2022-12-06T00:31:56.844Z,192.10
2022-12-06T00:37:00.261Z,213.73
2022-12-06T00:42:05.152Z,247.82
2022-12-06T00:47:08.518Z,250.90
2022-12-06T00:52:11.937Z,241.00
2022-12-06T00:57:16.915Z,231.13
2022-12-06T01:02:20.303Z,203.63
2022-12-06T01:07:23.718Z,211.68
2022-12-06T01:12:28.427Z,220.15
2022-12-06T01:17:31.789Z,401.88
2022-12-06T01:22:35.800Z,227.77
2022-12-06T01:27:40.497Z,232.23
2022-12-06T01:32:43.995Z,208.18
2022-12-06T01:37:47.375Z,247.57
2022-12-06T01:42:52.119Z,190.07
2022-12-06T01:47:55.642Z,217.25
2022-12-06T01:53:02.553Z,169.63
2022-12-06T01:58:12.234Z,180.82
2022-12-06T02:03:23.816Z,171.60
2022-12-06T02:08:28.857Z,173.80
2022-12-06T02:13:35.719Z,225.13
2022-12-06T02:18:47.018Z,160.93
2022-12-06T02:24:31.086Z,160.70
2022-12-06T02:30:12.996Z,146.00
2022-12-06T02:35:27.001Z,174.40
2022-12-06T02:40:34.114Z,155.13
2022-12-06T02:45:41.728Z,142.13
2022-12-06T02:50:50.759Z,135.57
2022-12-06T02:55:55.096Z,137.63
2022-12-06T03:08:18.646Z,123.93
2022-12-06T03:13:27.404Z,132.50
2022-12-06T03:18:37.590Z,122.33
2022-12-06T03:23:45.093Z,144.02
2022-12-06T03:28:50.505Z,141.93
2022-12-06T03:33:58.618Z,115.90
2022-12-06T03:39:06.130Z,127.72
2022-12-06T03:44:09.556Z,107.95
2022-12-06T03:49:17.498Z,92.00
2022-12-06T03:54:22.229Z,98.85
2022-12-06T03:59:25.636Z,107.18
2022-12-06T04:04:29.016Z,110.20
2022-12-06T04:09:51.076Z,121.07
2022-12-06T04:14:54.450Z,121.97
2022-12-06T04:19:57.779Z,113.80
2022-12-06T04:25:02.494Z,106.13
2022-12-06T04:30:25.715Z,92.47
2022-12-06T04:35:46.751Z,88.50
2022-12-06T04:40:51.544Z,115.68
2022-12-06T04:45:54.895Z,103.07
2022-12-06T04:50:58.276Z,95.88
2022-12-06T04:56:02.979Z,122.03
2022-12-06T05:01:06.496Z,95.38
2022-12-06T05:06:09.941Z,91.65
2022-12-06T05:11:14.689Z,124.43
2022-12-06T05:16:18.251Z,131.02
2022-12-06T05:21:23.981Z,135.75
2022-12-06T05:26:30.198Z,122.53
2022-12-06T05:31:33.670Z,143.15
2022-12-06T05:36:37.166Z,119.65
2022-12-06T05:41:42.021Z,120.38
2022-12-06T05:46:45.370Z,108.50
2022-12-06T05:51:48.802Z,125.65
2022-12-06T05:56:53.559Z,98.18
2022-12-06T06:01:57.142Z,94.00
2022-12-06T06:07:00.964Z,101.65
2022-12-06T06:12:12.125Z,96.28
2022-12-06T06:17:15.936Z,90.78
2022-12-06T06:22:20.088Z,87.80
2022-12-06T06:27:24.966Z,131.07
2022-12-06T06:32:28.347Z,90.75
2022-12-06T06:37:33.070Z,81.00
2022-12-06T06:42:37.914Z,85.32
2022-12-06T06:47:41.360Z,81.45
2022-12-06T06:52:44.725Z,89.30
2022-12-06T06:57:49.504Z,100.88
2022-12-06T07:02:53.133Z,119.05
2022-12-06T07:07:57.854Z,136.75
2022-12-06T07:13:02.627Z,117.82
2022-12-06T07:18:06.038Z,122.25
2022-12-06T07:23:09.453Z,139.75
2022-12-06T07:28:14.206Z,126.22
2022-12-06T07:33:17.582Z,195.60
2022-12-06T07:38:21.437Z,184.95
2022-12-06T07:43:43.442Z,122.80
2022-12-06T07:48:46.820Z,164.75
2022-12-06T07:53:50.204Z,149.35
2022-12-06T07:58:54.978Z,117.18
2022-12-06T08:04:00.784Z,143.23
2022-12-06T08:09:05.220Z,141.13
2022-12-06T08:14:10.920Z,160.95
2022-12-06T08:19:14.354Z,141.57
2022-12-06T08:24:17.795Z,118.75
2022-12-06T08:29:23.174Z,132.82
2022-12-06T08:34:26.563Z,116.30
2022-12-06T08:39:30.031Z,106.28
2022-12-06T08:44:36.488Z,122.32
2022-12-06T08:49:39.988Z,126.15
2022-12-06T08:54:43.449Z,157.75
2022-12-06T08:59:48.234Z,142.38
2022-12-06T09:04:52.199Z,118.00
2022-12-06T09:09:55.640Z,132.75
2022-12-06T09:15:00.409Z,87.05
2022-12-06T09:20:06.142Z,91.05
2022-12-06T09:25:10.425Z,91.32
2022-12-06T09:30:15.642Z,108.00
2022-12-06T09:35:24.745Z,96.47
2022-12-06T09:45:50.357Z,102.68
2022-12-06T09:51:07.711Z,129.57
2022-12-06T09:56:20.867Z,105.10
2022-12-06T10:01:36.013Z,129.93
2022-12-06T10:06:45.714Z,149.18
2022-12-06T10:12:08.356Z,137.15
2022-12-06T10:17:22.405Z,143.65
2022-12-06T10:22:47.284Z,141.68
2022-12-06T10:28:01.312Z,168.38
2022-12-06T10:33:14.652Z,105.88
2022-12-06T10:38:26.675Z,101.47
2022-12-06T10:43:37.641Z,102.32
2022-12-06T10:48:52.788Z,77.75
2022-12-06T10:54:14.391Z,71.95
2022-12-06T10:59:28.860Z,76.72
2022-12-06T11:04:37.944Z,65.90
2022-12-06T11:09:44.198Z,87.38
2022-12-06T11:14:53.891Z,83.03
2022-12-06T11:20:02.765Z,63.67
2022-12-06T11:25:16.297Z,47.47
2022-12-06T11:30:21.404Z,50.38
2022-12-06T11:35:29.567Z,79.05
2022-12-06T11:40:37.100Z,69.63
2022-12-06T11:45:45.458Z,45.60
2022-12-06T11:50:52.386Z,50.63
2022-12-06T11:55:59.379Z,59.08
2022-12-06T12:01:05.464Z,64.95
2022-12-06T12:06:22.795Z,68.97
2022-12-06T12:11:29.703Z,46.33
2022-12-06T12:16:37.510Z,53.45
2022-12-06T12:21:44.024Z,98.15
2022-12-06T12:26:47.576Z,47.42
2022-12-06T12:31:57.074Z,84.00
2022-12-06T12:37:04.821Z,63.40
2022-12-06T12:42:28.129Z,66.28
2022-12-06T12:47:32.841Z,84.88
2022-12-06T12:52:40.254Z,125.75
2022-12-06T12:57:46.363Z,90.10
2022-12-06T13:02:54.327Z,62.17
2022-12-06T13:08:05.875Z,51.55
2022-12-06T13:13:17.843Z,51.30
2022-12-06T13:18:24.611Z,49.53
2022-12-06T13:23:35.009Z,65.28
2022-12-06T13:28:52.502Z,61.17
2022-12-06T13:34:00.366Z,78.07
2022-12-06T13:39:36.593Z,77.65
2022-12-06T13:44:41.790Z,81.35
2022-12-06T13:49:48.923Z,57.08
2022-12-06T13:54:54.142Z,49.30
2022-12-06T13:59:58.477Z,50.50
2022-12-06T14:05:03.878Z,46.05
2022-12-06T14:10:14.751Z,60.88
2022-12-06T14:15:19.465Z,78.80
2022-12-06T14:20:25.028Z,68.22
2022-12-06T14:25:31.621Z,55.72
2022-12-06T14:30:35.434Z,66.68
2022-12-06T14:35:40.311Z,48.38
2022-12-06T14:41:03.462Z,61.22
2022-12-06T14:46:12.000Z,65.72
2022-12-06T14:51:23.492Z,94.20
2022-12-06T14:56:33.215Z,82.82
2022-12-06T15:06:53.051Z,125.85
2022-12-06T15:12:38.201Z,115.05
2022-12-06T15:17:43.058Z,102.05
2022-12-06T15:22:46.500Z,117.75
2022-12-06T15:27:51.284Z,101.53
2022-12-06T15:32:55.743Z,105.57
2022-12-06T15:37:59.333Z,94.05
2022-12-06T15:43:04.342Z,71.60
2022-12-06T15:48:07.840Z,91.63
2022-12-06T15:53:14.636Z,173.30
2022-12-06T15:58:19.801Z,99.65
2022-12-06T16:03:23.364Z,64.63
2022-12-06T16:08:26.993Z,87.25
2022-12-06T16:13:31.909Z,54.38
2022-12-06T16:18:35.574Z,48.60
2022-12-06T16:24:13.396Z,62.85
2022-12-06T16:29:25.163Z,90.07
2022-12-06T16:34:29.706Z,73.03
2022-12-06T16:39:35.637Z,117.88
2022-12-06T16:44:51.556Z,95.93
2022-12-06T16:49:55.396Z,136.70
2022-12-06T16:54:59.256Z,75.60
2022-12-06T17:00:05.388Z,147.95
2022-12-06T17:05:09.254Z,124.45
2022-12-06T17:10:15.834Z,125.72
2022-12-06T17:15:22.521Z,72.88
2022-12-06T17:20:26.690Z,63.58
2022-12-06T17:25:30.212Z,59.00
2022-12-06T17:30:35.054Z,70.40
2022-12-06T17:35:38.710Z,103.60
2022-12-06T17:40:42.172Z,103.18
2022-12-06T17:45:47.279Z,63.83
2022-12-06T17:50:50.879Z,55.08
2022-12-06T17:55:54.523Z,62.67
2022-12-06T18:01:01.165Z,81.15
2022-12-06T18:06:10.295Z,115.07
2022-12-06T18:11:14.174Z,68.00
2022-12-06T18:16:21.435Z,64.32
2022-12-06T18:21:25.473Z,103.30
2022-12-06T18:26:28.974Z,65.05
2022-12-06T18:31:36.628Z,137.15
2022-12-06T18:36:40.693Z,181.45
2022-12-06T18:41:44.408Z,121.68
2022-12-06T18:46:52.566Z,99.75
2022-12-06T18:51:56.396Z,100.55
2022-12-06T18:57:00.011Z,113.57
2022-12-06T19:02:05.130Z,112.75
2022-12-06T19:07:08.659Z,115.97
2022-12-06T19:12:12.304Z,115.68
2022-12-06T19:17:17.310Z,123.72
2022-12-06T19:22:21.526Z,98.93
2022-12-06T19:27:25.080Z,94.22
2022-12-06T19:32:30.178Z,95.53
2022-12-06T19:37:33.667Z,107.05
2022-12-06T19:42:54.627Z,92.93
2022-12-06T19:48:00.560Z,88.25
2022-12-06T19:53:06.607Z,89.43
2022-12-06T19:58:11.732Z,148.30
2022-12-06T20:03:16.699Z,120.45
2022-12-06T20:08:20.281Z,93.78
2022-12-06T20:13:24.760Z,93.90
2022-12-06T20:18:30.442Z,90.20
2022-12-06T20:23:34.109Z,91.85
2022-12-06T20:28:37.726Z,101.47
2022-12-06T20:33:42.628Z,115.90
2022-12-06T20:38:46.516Z,90.47
2022-12-06T20:43:51.153Z,91.20
2022-12-06T20:48:57.411Z,96.95
2022-12-06T20:54:03.025Z,79.93
2022-12-06T20:59:10.153Z,93.82
2022-12-06T21:04:16.677Z,116.25
2022-12-06T21:09:20.447Z,98.75
2022-12-06T21:14:23.895Z,126.07
2022-12-06T21:19:28.703Z,69.47
2022-12-06T21:24:32.491Z,70.95
2022-12-06T21:29:36.579Z,67.88
2022-12-06T21:34:46.136Z,79.68
2022-12-06T21:39:50.106Z,73.47
2022-12-06T21:44:54.422Z,72.95
2022-12-06T21:49:59.733Z,85.18
2022-12-06T21:55:03.590Z,76.43
2022-12-06T22:00:08.375Z,66.32
2022-12-06T22:05:17.262Z,82.07
2022-12-06T22:10:20.742Z,76.82
2022-12-06T22:15:24.227Z,104.28
2022-12-06T22:20:29.029Z,93.55
2022-12-06T22:25:32.665Z,108.18
2022-12-06T22:30:36.082Z,108.50
2022-12-06T22:35:40.906Z,112.20
2022-12-06T22:40:44.350Z,98.47
2022-12-06T22:45:47.784Z,99.95
2022-12-06T22:50:52.556Z,83.85
2022-12-06T22:56:00.569Z,91.78
2022-12-06T23:01:15.876Z,91.28
2022-12-06T23:06:23.897Z,91.65
2022-12-06T23:11:29.357Z,85.53
2022-12-06T23:16:33.755Z,102.50
2022-12-06T23:21:40.838Z,99.95
2022-12-06T23:26:46.866Z,109.43
2022-12-06T23:31:50.383Z,88.50
2022-12-06T23:36:56.239Z,77.90
2022-12-06T23:41:59.683Z,72.07
2022-12-06T23:47:03.139Z,68.22
2022-12-06T23:52:07.922Z,51.85
2022-12-06T23:57:14.941Z,67.07
